sensor_id;sensor_type;location;lat;lon;timestamp;pressure;altitude;pressure_sealevel;temperature;humidity
34983;BME280;21187;50.976;13.720;2023-04-30T00:02:55;98554.94;;;13.22;56.71
34983;BME280;21187;50.976;13.720;2023-04-30T00:07:57;98555.41;;;13.27;56.74
34983;BME280;21187;50.976;13.720;2023-04-30T00:12:59;98558.66;;;13.33;56.28
34983;BME280;21187;50.976;13.720;2023-04-30T00:18:01;98556.22;;;13.28;56.71
34983;BME280;21187;50.976;13.720;2023-04-30T00:23:03;98570.88;;;13.23;56.33
34983;BME280;21187;50.976;13.720;2023-04-30T00:28:05;98575.81;;;13.18;56.31
34983;BME280;21187;50.976;13.720;2023-04-30T00:33:07;98576.28;;;13.20;56.20
34983;BME280;21187;50.976;13.720;2023-04-30T00:38:09;98580.97;;;13.23;55.90
34983;BME280;21187;50.976;13.720;2023-04-30T00:43:12;98576.31;;;13.23;55.75
34983;BME280;21187;50.976;13.720;2023-04-30T00:48:15;98579.00;;;13.20;55.69
34983;BME280;21187;50.976;13.720;2023-04-30T00:53:17;98591.88;;;13.23;55.53
34983;BME280;21187;50.976;13.720;2023-04-30T00:58:21;98595.88;;;13.29;55.16
34983;BME280;21187;50.976;13.720;2023-04-30T01:03:23;98596.56;;;13.26;55.18
34983;BME280;21187;50.976;13.720;2023-04-30T01:08:26;98604.25;;;13.20;55.00
34983;BME280;21187;50.976;13.720;2023-04-30T01:13:33;98599.53;;;13.17;55.11
34983;BME280;21187;50.976;13.720;2023-04-30T01:18:41;98606.47;;;13.14;55.01
34983;BME280;21187;50.976;13.720;2023-04-30T01:29:07;98626.31;;;12.99;54.92
34983;BME280;21187;50.976;13.720;2023-04-30T01:34:11;98617.25;;;12.75;55.33
34983;BME280;21187;50.976;13.720;2023-04-30T01:55:36;98630.25;;;12.34;55.47
34983;BME280;21187;50.976;13.720;2023-04-30T02:00:42;98641.63;;;12.24;55.43
34983;BME280;21187;50.976;13.720;2023-04-30T02:05:46;98640.75;;;12.20;55.34
34983;BME280;21187;50.976;13.720;2023-04-30T02:10:48;98659.78;;;12.07;55.31
34983;BME280;21187;50.976;13.720;2023-04-30T02:15:50;98670.25;;;11.93;55.56
34983;BME280;21187;50.976;13.720;2023-04-30T02:20:52;98676.38;;;11.90;55.18
34983;BME280;21187;50.976;13.720;2023-04-30T02:25:53;98677.75;;;11.83;55.20
34983;BME280;21187;50.976;13.720;2023-04-30T02:30:55;98693.84;;;11.76;55.29
34983;BME280;21187;50.976;13.720;2023-04-30T02:35:59;98690.25;;;11.60;55.47
34983;BME280;21187;50.976;13.720;2023-04-30T02:41:01;98706.44;;;11.56;55.47
34983;BME280;21187;50.976;13.720;2023-04-30T02:46:04;98710.88;;;11.48;55.70
34983;BME280;21187;50.976;13.720;2023-04-30T02:51:06;98714.25;;;11.45;55.48
34983;BME280;21187;50.976;13.720;2023-04-30T02:56:07;98713.94;;;11.47;55.40
34983;BME280;21187;50.976;13.720;2023-04-30T03:01:09;98722.56;;;11.65;54.52
34983;BME280;21187;50.976;13.720;2023-04-30T03:06:11;98728.72;;;11.37;55.02
34983;BME280;21187;50.976;13.720;2023-04-30T03:11:13;98731.00;;;11.23;55.37
34983;BME280;21187;50.976;13.720;2023-04-30T03:16:15;98731.91;;;10.90;55.84
34983;BME280;21187;50.976;13.720;2023-04-30T03:21:17;98741.16;;;10.76;56.28
34983;BME280;21187;50.976;13.720;2023-04-30T03:26:19;98743.41;;;10.74;55.85
34983;BME280;21187;50.976;13.720;2023-04-30T03:31:21;98751.09;;;10.72;55.59
34983;BME280;21187;50.976;13.720;2023-04-30T03:36:23;98756.00;;;10.58;56.13
34983;BME280;21187;50.976;13.720;2023-04-30T03:41:25;98752.94;;;10.47;56.46
34983;BME280;21187;50.976;13.720;2023-04-30T03:46:27;98761.84;;;10.47;56.34
34983;BME280;21187;50.976;13.720;2023-04-30T03:51:29;98771.56;;;10.48;55.57
34983;BME280;21187;50.976;13.720;2023-04-30T03:56:32;98764.69;;;10.51;55.33
34983;BME280;21187;50.976;13.720;2023-04-30T04:01:35;98774.06;;;10.54;55.46
34983;BME280;21187;50.976;13.720;2023-04-30T04:06:37;98779.13;;;10.43;55.69
34983;BME280;21187;50.976;13.720;2023-04-30T04:11:39;98779.56;;;10.24;56.62
34983;BME280;21187;50.976;13.720;2023-04-30T04:16:41;98783.81;;;10.12;56.25
34983;BME280;21187;50.976;13.720;2023-04-30T04:21:43;98798.00;;;10.09;56.87
34983;BME280;21187;50.976;13.720;2023-04-30T04:26:49;98802.28;;;9.89;57.33
34983;BME280;21187;50.976;13.720;2023-04-30T04:31:51;98809.00;;;9.83;57.60
34983;BME280;21187;50.976;13.720;2023-04-30T04:36:53;98815.28;;;9.96;57.19
34983;BME280;21187;50.976;13.720;2023-04-30T04:41:55;98824.84;;;10.14;56.26
34983;BME280;21187;50.976;13.720;2023-04-30T04:46:59;98831.19;;;10.19;55.93
34983;BME280;21187;50.976;13.720;2023-04-30T04:52:01;98835.16;;;10.21;56.10
34983;BME280;21187;50.976;13.720;2023-04-30T04:57:03;98835.97;;;10.22;56.51
34983;BME280;21187;50.976;13.720;2023-04-30T05:02:05;98841.91;;;10.15;56.71
34983;BME280;21187;50.976;13.720;2023-04-30T05:07:07;98845.00;;;10.26;56.72
34983;BME280;21187;50.976;13.720;2023-04-30T05:12:08;98848.63;;;10.30;56.64
34983;BME280;21187;50.976;13.720;2023-04-30T05:17:11;98851.94;;;10.36;56.27
34983;BME280;21187;50.976;13.720;2023-04-30T05:22:12;98859.09;;;10.40;56.77
34983;BME280;21187;50.976;13.720;2023-04-30T05:27:15;98867.06;;;10.37;56.30
34983;BME280;21187;50.976;13.720;2023-04-30T05:32:17;98868.72;;;10.50;56.36
34983;BME280;21187;50.976;13.720;2023-04-30T05:37:19;98880.03;;;10.52;56.24
34983;BME280;21187;50.976;13.720;2023-04-30T05:42:23;98885.78;;;10.51;55.92
34983;BME280;21187;50.976;13.720;2023-04-30T05:47:25;98878.81;;;10.62;56.15
34983;BME280;21187;50.976;13.720;2023-04-30T05:52:26;98875.94;;;10.79;56.17
34983;BME280;21187;50.976;13.720;2023-04-30T05:57:28;98883.00;;;10.93;55.54
34983;BME280;21187;50.976;13.720;2023-04-30T06:02:30;98880.78;;;11.07;55.24
34983;BME280;21187;50.976;13.720;2023-04-30T06:07:32;98886.69;;;11.22;55.24
34983;BME280;21187;50.976;13.720;2023-04-30T06:12:34;98885.59;;;11.35;54.78
34983;BME280;21187;50.976;13.720;2023-04-30T06:17:36;98884.41;;;11.24;55.14
34983;BME280;21187;50.976;13.720;2023-04-30T06:22:38;98887.03;;;11.45;54.63
34983;BME280;21187;50.976;13.720;2023-04-30T06:27:41;98888.31;;;11.72;54.27
34983;BME280;21187;50.976;13.720;2023-04-30T06:32:43;98885.63;;;11.97;54.06
34983;BME280;21187;50.976;13.720;2023-04-30T06:37:45;98883.72;;;12.26;53.78
34983;BME280;21187;50.976;13.720;2023-04-30T06:42:47;98884.06;;;12.37;53.20
34983;BME280;21187;50.976;13.720;2023-04-30T06:47:49;98884.91;;;12.12;53.56
34983;BME280;21187;50.976;13.720;2023-04-30T06:52:52;98891.88;;;12.26;53.27
34983;BME280;21187;50.976;13.720;2023-04-30T06:57:54;98887.38;;;12.30;52.99
34983;BME280;21187;50.976;13.720;2023-04-30T07:02:58;98887.84;;;12.20;53.16
34983;BME280;21187;50.976;13.720;2023-04-30T07:08:03;98885.97;;;12.48;52.79
34983;BME280;21187;50.976;13.720;2023-04-30T07:13:05;98894.47;;;12.75;52.52
34983;BME280;21187;50.976;13.720;2023-04-30T07:18:08;98902.53;;;12.88;52.15
34983;BME280;21187;50.976;13.720;2023-04-30T07:23:10;98911.53;;;13.04;52.07
34983;BME280;21187;50.976;13.720;2023-04-30T07:28:12;98897.50;;;13.02;51.96
34983;BME280;21187;50.976;13.720;2023-04-30T07:33:14;98895.16;;;12.72;51.53
34983;BME280;21187;50.976;13.720;2023-04-30T07:38:17;98906.78;;;12.44;51.82
34983;BME280;21187;50.976;13.720;2023-04-30T07:43:20;98908.00;;;12.06;51.83
34983;BME280;21187;50.976;13.720;2023-04-30T07:48:22;98918.16;;;12.09;51.58
34983;BME280;21187;50.976;13.720;2023-04-30T07:53:24;98916.47;;;11.92;52.03
34983;BME280;21187;50.976;13.720;2023-04-30T07:58:25;98919.16;;;11.92;52.00
34983;BME280;21187;50.976;13.720;2023-04-30T08:03:27;98921.44;;;12.15;51.81
34983;BME280;21187;50.976;13.720;2023-04-30T08:08:29;98924.47;;;12.38;51.38
34983;BME280;21187;50.976;13.720;2023-04-30T08:13:31;98922.88;;;12.37;51.62
34983;BME280;21187;50.976;13.720;2023-04-30T08:18:33;98919.81;;;12.39;51.24
34983;BME280;21187;50.976;13.720;2023-04-30T08:23:35;98931.53;;;12.14;50.94
34983;BME280;21187;50.976;13.720;2023-04-30T08:28:37;98929.16;;;12.13;51.43
34983;BME280;21187;50.976;13.720;2023-04-30T08:33:39;98925.81;;;12.32;51.20
34983;BME280;21187;50.976;13.720;2023-04-30T08:38:41;98926.25;;;12.46;50.75
34983;BME280;21187;50.976;13.720;2023-04-30T08:43:43;98928.03;;;12.55;51.09
34983;BME280;21187;50.976;13.720;2023-04-30T08:48:45;98945.44;;;12.66;50.16
34983;BME280;21187;50.976;13.720;2023-04-30T08:53:50;98924.59;;;12.70;50.48
34983;BME280;21187;50.976;13.720;2023-04-30T08:58:53;98936.66;;;12.57;50.05
34983;BME280;21187;50.976;13.720;2023-04-30T09:03:56;98937.25;;;12.78;50.47
34983;BME280;21187;50.976;13.720;2023-04-30T09:09:08;98938.75;;;13.04;50.15
34983;BME280;21187;50.976;13.720;2023-04-30T09:14:11;98940.88;;;13.27;49.89
34983;BME280;21187;50.976;13.720;2023-04-30T09:19:28;98941.13;;;13.66;49.45
34983;BME280;21187;50.976;13.720;2023-04-30T09:24:44;98936.56;;;13.86;49.35
34983;BME280;21187;50.976;13.720;2023-04-30T09:29:47;98945.16;;;13.72;49.02
34983;BME280;21187;50.976;13.720;2023-04-30T09:34:49;98934.97;;;13.69;49.04
34983;BME280;21187;50.976;13.720;2023-04-30T09:39:54;98934.59;;;13.87;48.11
34983;BME280;21187;50.976;13.720;2023-04-30T09:44:57;98936.56;;;13.70;47.78
34983;BME280;21187;50.976;13.720;2023-04-30T09:49:59;98928.97;;;14.11;47.72
34983;BME280;21187;50.976;13.720;2023-04-30T09:55:01;98928.13;;;14.27;47.26
34983;BME280;21187;50.976;13.720;2023-04-30T10:00:03;98915.81;;;14.53;46.62
34983;BME280;21187;50.976;13.720;2023-04-30T10:05:09;98919.72;;;14.91;45.91
34983;BME280;21187;50.976;13.720;2023-04-30T10:10:12;98915.72;;;14.85;45.00
34983;BME280;21187;50.976;13.720;2023-04-30T10:15:39;98911.69;;;14.98;45.09
34983;BME280;21187;50.976;13.720;2023-04-30T10:20:45;98906.66;;;15.43;44.67
34983;BME280;21187;50.976;13.720;2023-04-30T10:25:49;98899.53;;;15.38;43.49
34983;BME280;21187;50.976;13.720;2023-04-30T10:30:52;98899.44;;;15.31;43.94
34983;BME280;21187;50.976;13.720;2023-04-30T10:36:03;98901.41;;;15.34;44.12
34983;BME280;21187;50.976;13.720;2023-04-30T10:41:06;98898.50;;;15.46;43.38
34983;BME280;21187;50.976;13.720;2023-04-30T10:46:09;98893.09;;;15.73;42.85
34983;BME280;21187;50.976;13.720;2023-04-30T10:51:12;98896.59;;;15.97;42.21
34983;BME280;21187;50.976;13.720;2023-04-30T10:56:28;98891.44;;;15.92;42.20
34983;BME280;21187;50.976;13.720;2023-04-30T11:01:30;98886.22;;;16.10;41.60
34983;BME280;21187;50.976;13.720;2023-04-30T11:12:10;98874.28;;;16.52;41.28
34983;BME280;21187;50.976;13.720;2023-04-30T11:17:23;98866.88;;;16.53;41.50
34983;BME280;21187;50.976;13.720;2023-04-30T11:22:26;98874.41;;;16.63;40.10
34983;BME280;21187;50.976;13.720;2023-04-30T11:27:32;98865.66;;;16.50;40.26
34983;BME280;21187;50.976;13.720;2023-04-30T11:32:36;98873.16;;;16.57;39.76
34983;BME280;21187;50.976;13.720;2023-04-30T11:37:40;98871.84;;;16.77;38.58
34983;BME280;21187;50.976;13.720;2023-04-30T11:42:46;98879.53;;;16.99;39.17
34983;BME280;21187;50.976;13.720;2023-04-30T11:47:50;98868.47;;;17.33;39.07
34983;BME280;21187;50.976;13.720;2023-04-30T11:52:56;98873.22;;;17.39;38.30
34983;BME280;21187;50.976;13.720;2023-04-30T11:57:58;98870.03;;;17.30;38.24
34983;BME280;21187;50.976;13.720;2023-04-30T12:03:01;98858.38;;;17.40;38.21
34983;BME280;21187;50.976;13.720;2023-04-30T12:08:06;98845.91;;;17.46;38.30
34983;BME280;21187;50.976;13.720;2023-04-30T12:13:13;98840.63;;;17.72;38.22
34983;BME280;21187;50.976;13.720;2023-04-30T12:18:15;98859.31;;;17.59;37.63
34983;BME280;21187;50.976;13.720;2023-04-30T12:23:18;98858.91;;;17.57;37.15
34983;BME280;21187;50.976;13.720;2023-04-30T12:28:22;98844.81;;;17.55;37.49
34983;BME280;21187;50.976;13.720;2023-04-30T12:33:24;98850.81;;;17.71;37.56
34983;BME280;21187;50.976;13.720;2023-04-30T12:38:26;98837.41;;;17.59;36.26
34983;BME280;21187;50.976;13.720;2023-04-30T12:43:28;98842.16;;;17.69;36.38
34983;BME280;21187;50.976;13.720;2023-04-30T12:48:42;98830.91;;;17.82;36.30
34983;BME280;21187;50.976;13.720;2023-04-30T12:53:45;98827.34;;;17.74;36.30
34983;BME280;21187;50.976;13.720;2023-04-30T12:58:47;98829.34;;;17.80;35.95
34983;BME280;21187;50.976;13.720;2023-04-30T13:03:51;98837.66;;;17.95;35.52
34983;BME280;21187;50.976;13.720;2023-04-30T13:08:54;98816.94;;;17.98;36.03
34983;BME280;21187;50.976;13.720;2023-04-30T13:13:59;98822.91;;;18.25;35.52
34983;BME280;21187;50.976;13.720;2023-04-30T13:19:01;98810.38;;;18.20;35.70
34983;BME280;21187;50.976;13.720;2023-04-30T13:24:03;98808.81;;;18.26;35.76
34983;BME280;21187;50.976;13.720;2023-04-30T13:29:05;98802.59;;;18.33;35.39
34983;BME280;21187;50.976;13.720;2023-04-30T13:34:08;98791.63;;;18.29;34.77
34983;BME280;21187;50.976;13.720;2023-04-30T13:39:11;98794.75;;;18.28;35.02
34983;BME280;21187;50.976;13.720;2023-04-30T13:44:13;98790.47;;;18.31;34.44
34983;BME280;21187;50.976;13.720;2023-04-30T13:49:17;98786.56;;;18.42;34.26
34983;BME280;21187;50.976;13.720;2023-04-30T13:54:20;98783.03;;;18.45;33.72
34983;BME280;21187;50.976;13.720;2023-04-30T13:59:22;98771.25;;;18.34;33.56
34983;BME280;21187;50.976;13.720;2023-04-30T14:04:24;98771.66;;;18.36;33.94
34983;BME280;21187;50.976;13.720;2023-04-30T14:09:26;98774.41;;;18.40;33.79
34983;BME280;21187;50.976;13.720;2023-04-30T14:14:29;98770.50;;;18.37;33.54
34983;BME280;21187;50.976;13.720;2023-04-30T14:19:32;98763.44;;;18.36;33.49
34983;BME280;21187;50.976;13.720;2023-04-30T14:24:35;98762.66;;;18.39;33.45
34983;BME280;21187;50.976;13.720;2023-04-30T14:29:37;98757.91;;;18.22;33.08
34983;BME280;21187;50.976;13.720;2023-04-30T14:34:39;98762.59;;;18.25;33.20
34983;BME280;21187;50.976;13.720;2023-04-30T14:39:41;98757.53;;;18.27;33.25
34983;BME280;21187;50.976;13.720;2023-04-30T14:44:45;98753.22;;;18.26;33.23
34983;BME280;21187;50.976;13.720;2023-04-30T14:49:47;98747.72;;;18.22;32.98
34983;BME280;21187;50.976;13.720;2023-04-30T14:54:50;98753.97;;;18.16;33.07
34983;BME280;21187;50.976;13.720;2023-04-30T14:59:52;98752.38;;;18.07;32.76
34983;BME280;21187;50.976;13.720;2023-04-30T15:04:58;98752.34;;;18.00;32.52
34983;BME280;21187;50.976;13.720;2023-04-30T15:10:00;98738.94;;;17.88;32.32
34983;BME280;21187;50.976;13.720;2023-04-30T15:15:02;98742.06;;;17.83;32.12
34983;BME280;21187;50.976;13.720;2023-04-30T15:20:07;98743.22;;;17.78;31.47
34983;BME280;21187;50.976;13.720;2023-04-30T15:25:09;98745.13;;;17.70;30.89
34983;BME280;21187;50.976;13.720;2023-04-30T15:30:11;98736.53;;;17.72;30.93
34983;BME280;21187;50.976;13.720;2023-04-30T15:35:13;98734.97;;;17.74;31.03
34983;BME280;21187;50.976;13.720;2023-04-30T15:40:19;98731.09;;;17.83;30.73
34983;BME280;21187;50.976;13.720;2023-04-30T15:45:24;98740.47;;;17.78;30.49
34983;BME280;21187;50.976;13.720;2023-04-30T15:50:30;98729.44;;;17.63;30.31
34983;BME280;21187;50.976;13.720;2023-04-30T15:55:38;98731.38;;;17.63;29.92
34983;BME280;21187;50.976;13.720;2023-04-30T16:00:43;98726.31;;;17.65;30.03
34983;BME280;21187;50.976;13.720;2023-04-30T16:05:50;98722.41;;;17.62;29.32
34983;BME280;21187;50.976;13.720;2023-04-30T16:10:59;98713.75;;;17.60;29.80
34983;BME280;21187;50.976;13.720;2023-04-30T16:16:09;98713.41;;;17.62;29.25
34983;BME280;21187;50.976;13.720;2023-04-30T16:21:14;98716.50;;;17.57;29.46
34983;BME280;21187;50.976;13.720;2023-04-30T16:26:17;98712.19;;;17.56;29.53
34983;BME280;21187;50.976;13.720;2023-04-30T16:31:21;98708.25;;;17.50;29.73
34983;BME280;21187;50.976;13.720;2023-04-30T16:36:24;98705.13;;;17.48;29.57
34983;BME280;21187;50.976;13.720;2023-04-30T16:41:30;98707.06;;;17.47;30.08
34983;BME280;21187;50.976;13.720;2023-04-30T16:46:33;98709.41;;;17.45;29.61
34983;BME280;21187;50.976;13.720;2023-04-30T16:51:37;98698.00;;;17.39;29.67
34983;BME280;21187;50.976;13.720;2023-04-30T16:56:39;98696.38;;;17.24;29.47
34983;BME280;21187;50.976;13.720;2023-04-30T17:01:42;98697.00;;;17.06;29.80
34983;BME280;21187;50.976;13.720;2023-04-30T17:06:45;98698.63;;;17.11;30.04
34983;BME280;21187;50.976;13.720;2023-04-30T17:11:49;98700.16;;;17.08;30.00
34983;BME280;21187;50.976;13.720;2023-04-30T17:16:52;98711.06;;;17.01;30.24
34983;BME280;21187;50.976;13.720;2023-04-30T17:21:54;98700.91;;;17.02;30.24
34983;BME280;21187;50.976;13.720;2023-04-30T17:26:57;98707.16;;;16.99;30.33
34983;BME280;21187;50.976;13.720;2023-04-30T17:32:00;98717.94;;;16.84;29.91
34983;BME280;21187;50.976;13.720;2023-04-30T17:37:03;98713.09;;;16.63;30.47
34983;BME280;21187;50.976;13.720;2023-04-30T17:42:05;98713.81;;;16.60;30.59
34983;BME280;21187;50.976;13.720;2023-04-30T17:47:09;98711.41;;;16.51;30.69
34983;BME280;21187;50.976;13.720;2023-04-30T17:52:10;98705.56;;;16.53;31.13
34983;BME280;21187;50.976;13.720;2023-04-30T17:57:12;98709.06;;;16.50;31.15
34983;BME280;21187;50.976;13.720;2023-04-30T18:02:14;98708.97;;;16.42;31.28
34983;BME280;21187;50.976;13.720;2023-04-30T18:07:16;98716.25;;;16.31;31.58
34983;BME280;21187;50.976;13.720;2023-04-30T18:12:18;98722.09;;;16.26;31.69
34983;BME280;21187;50.976;13.720;2023-04-30T18:17:20;98719.53;;;16.06;31.98
34983;BME280;21187;50.976;13.720;2023-04-30T18:22:22;98722.50;;;15.94;32.01
34983;BME280;21187;50.976;13.720;2023-04-30T18:27:24;98720.84;;;15.86;32.29
34983;BME280;21187;50.976;13.720;2023-04-30T18:32:26;98726.53;;;15.73;32.63
34983;BME280;21187;50.976;13.720;2023-04-30T18:37:28;98721.25;;;15.57;32.79
34983;BME280;21187;50.976;13.720;2023-04-30T18:42:30;98724.22;;;15.48;33.19
34983;BME280;21187;50.976;13.720;2023-04-30T18:47:33;98727.22;;;15.40;33.32
34983;BME280;21187;50.976;13.720;2023-04-30T18:52:36;98725.50;;;15.28;33.21
34983;BME280;21187;50.976;13.720;2023-04-30T18:57:38;98733.78;;;15.08;33.63
34983;BME280;21187;50.976;13.720;2023-04-30T19:02:42;98743.75;;;14.97;33.93
34983;BME280;21187;50.976;13.720;2023-04-30T19:07:44;98743.50;;;14.83;34.01
34983;BME280;21187;50.976;13.720;2023-04-30T19:12:47;98750.41;;;14.76;34.47
34983;BME280;21187;50.976;13.720;2023-04-30T19:17:48;98744.66;;;14.62;34.53
34983;BME280;21187;50.976;13.720;2023-04-30T19:22:50;98735.81;;;14.45;34.74
34983;BME280;21187;50.976;13.720;2023-04-30T19:27:52;98743.84;;;14.38;35.09
34983;BME280;21187;50.976;13.720;2023-04-30T19:32:54;98750.41;;;14.34;34.94
34983;BME280;21187;50.976;13.720;2023-04-30T19:37:56;98745.44;;;14.20;35.08
34983;BME280;21187;50.976;13.720;2023-04-30T19:42:58;98741.47;;;14.13;35.14
34983;BME280;21187;50.976;13.720;2023-04-30T19:48:00;98746.75;;;14.06;35.47
34983;BME280;21187;50.976;13.720;2023-04-30T19:53:02;98751.06;;;13.88;35.54
34983;BME280;21187;50.976;13.720;2023-04-30T19:58:05;98747.63;;;13.71;36.06
34983;BME280;21187;50.976;13.720;2023-04-30T20:03:07;98756.75;;;13.63;36.21
34983;BME280;21187;50.976;13.720;2023-04-30T20:08:09;98752.22;;;13.51;36.14
34983;BME280;21187;50.976;13.720;2023-04-30T20:13:11;98751.78;;;13.33;36.47
34983;BME280;21187;50.976;13.720;2023-04-30T20:18:13;98748.97;;;13.29;36.56
34983;BME280;21187;50.976;13.720;2023-04-30T20:23:16;98745.41;;;13.09;36.83
34983;BME280;21187;50.976;13.720;2023-04-30T20:28:18;98740.94;;;13.01;36.89
34983;BME280;21187;50.976;13.720;2023-04-30T20:33:20;98741.28;;;12.99;36.69
34983;BME280;21187;50.976;13.720;2023-04-30T20:38:22;98738.75;;;12.91;37.06
34983;BME280;21187;50.976;13.720;2023-04-30T20:43:24;98727.53;;;12.76;37.35
34983;BME280;21187;50.976;13.720;2023-04-30T20:48:25;98732.88;;;12.57;37.76
34983;BME280;21187;50.976;13.720;2023-04-30T20:53:27;98737.03;;;12.38;38.26
34983;BME280;21187;50.976;13.720;2023-04-30T20:58:29;98733.44;;;12.34;38.43
34983;BME280;21187;50.976;13.720;2023-04-30T21:03:31;98730.91;;;12.41;38.02
34983;BME280;21187;50.976;13.720;2023-04-30T21:08:33;98733.19;;;12.39;38.07
34983;BME280;21187;50.976;13.720;2023-04-30T21:13:35;98726.94;;;12.23;38.34
34983;BME280;21187;50.976;13.720;2023-04-30T21:18:37;98734.19;;;12.19;38.36
34983;BME280;21187;50.976;13.720;2023-04-30T21:23:39;98735.81;;;12.07;38.56
34983;BME280;21187;50.976;13.720;2023-04-30T21:28:41;98734.41;;;11.85;39.20
34983;BME280;21187;50.976;13.720;2023-04-30T21:33:43;98733.41;;;11.77;38.97
34983;BME280;21187;50.976;13.720;2023-04-30T21:38:46;98730.81;;;11.69;39.40
34983;BME280;21187;50.976;13.720;2023-04-30T21:43:48;98732.75;;;11.56;39.63
34983;BME280;21187;50.976;13.720;2023-04-30T21:48:50;98723.50;;;11.57;39.42
34983;BME280;21187;50.976;13.720;2023-04-30T21:53:52;98713.00;;;11.55;39.42
34983;BME280;21187;50.976;13.720;2023-04-30T21:58:54;98717.19;;;11.53;39.38
34983;BME280;21187;50.976;13.720;2023-04-30T22:03:56;98719.25;;;11.43;39.46
34983;BME280;21187;50.976;13.720;2023-04-30T22:08:58;98712.84;;;11.23;39.72
34983;BME280;21187;50.976;13.720;2023-04-30T22:14:00;98716.78;;;11.13;40.18
34983;BME280;21187;50.976;13.720;2023-04-30T22:19:02;98720.59;;;11.12;39.92
34983;BME280;21187;50.976;13.720;2023-04-30T22:24:04;98709.69;;;11.09;40.20
34983;BME280;21187;50.976;13.720;2023-04-30T22:29:06;98696.69;;;11.02;40.09
34983;BME280;21187;50.976;13.720;2023-04-30T22:34:08;98691.59;;;11.01;40.17
34983;BME280;21187;50.976;13.720;2023-04-30T22:39:09;98690.59;;;10.93;40.36
34983;BME280;21187;50.976;13.720;2023-04-30T22:44:13;98690.50;;;10.77;40.39
34983;BME280;21187;50.976;13.720;2023-04-30T22:49:15;98683.00;;;10.61;40.92
34983;BME280;21187;50.976;13.720;2023-04-30T22:54:33;98682.31;;;10.52;40.85
34983;BME280;21187;50.976;13.720;2023-04-30T22:59:35;98682.28;;;10.40;40.93
34983;BME280;21187;50.976;13.720;2023-04-30T23:04:37;98680.09;;;10.33;41.18
34983;BME280;21187;50.976;13.720;2023-04-30T23:09:39;98681.47;;;10.27;41.27
34983;BME280;21187;50.976;13.720;2023-04-30T23:14:41;98666.78;;;10.28;41.06
34983;BME280;21187;50.976;13.720;2023-04-30T23:19:43;98668.78;;;10.19;41.56
34983;BME280;21187;50.976;13.720;2023-04-30T23:24:44;98675.78;;;10.07;41.85
34983;BME280;21187;50.976;13.720;2023-04-30T23:29:46;98671.81;;;10.05;41.58
34983;BME280;21187;50.976;13.720;2023-04-30T23:34:48;98656.81;;;10.07;41.58
34983;BME280;21187;50.976;13.720;2023-04-30T23:39:50;98659.75;;;10.02;42.10
34983;BME280;21187;50.976;13.720;2023-04-30T23:44:52;98660.94;;;9.92;42.25
34983;BME280;21187;50.976;13.720;2023-04-30T23:49:54;98661.75;;;9.93;41.67
34983;BME280;21187;50.976;13.720;2023-04-30T23:54:56;98648.56;;;9.91;41.47
34983;BME280;21187;50.976;13.720;2023-04-30T23:59:58;98651.59;;;9.90;41.67
